createdAt,value
2017-12-26T00:02:03.549Z,6.65
2017-12-26T00:04:31.369Z,6.90
2017-12-26T00:09:45.992Z,6.57
2017-12-26T00:12:16.064Z,6.47
2017-12-26T00:17:25.346Z,6.05
2017-12-26T00:19:54.804Z,6.22
2017-12-26T00:22:32.727Z,6.90
2017-12-26T00:25:15.668Z,7.45
2017-12-26T00:27:50.068Z,7.22
2017-12-26T00:35:35.228Z,5.28
2017-12-26T00:38:03.832Z,6.18
2017-12-26T00:43:16.955Z,6.10
2017-12-26T00:45:44.473Z,5.80
2017-12-26T00:48:13.602Z,6.12
2017-12-26T00:50:41.080Z,4.70
2017-12-26T00:53:15.984Z,4.65
2017-12-26T00:55:45.570Z,5.18
2017-12-26T00:58:14.077Z,5.43
2017-12-26T01:00:46.434Z,5.47
2017-12-26T01:03:14.166Z,5.55
2017-12-26T01:05:43.983Z,5.20
2017-12-26T01:08:13.056Z,5.50
2017-12-26T01:10:49.756Z,6.55
2017-12-26T01:13:17.389Z,5.12
2017-12-26T01:15:48.617Z,5.55
2017-12-26T01:18:22.902Z,6.32
2017-12-26T01:20:50.628Z,5.50
2017-12-26T01:23:18.342Z,5.25
2017-12-26T01:25:45.960Z,5.47
2017-12-26T01:28:15.293Z,5.10
2017-12-26T01:30:59.354Z,6.50
2017-12-26T01:33:26.979Z,5.28
2017-12-26T01:35:56.912Z,5.32
2017-12-26T01:38:24.520Z,5.60
2017-12-26T01:40:52.838Z,6.40
2017-12-26T01:43:24.216Z,5.40
2017-12-26T01:45:53.519Z,5.82
2017-12-26T01:48:34.645Z,5.12
2017-12-26T01:53:48.151Z,5.75
2017-12-26T01:56:15.737Z,6.28
2017-12-26T01:58:48.608Z,5.80
2017-12-26T02:01:16.168Z,5.37
2017-12-26T02:03:44.157Z,4.95
2017-12-26T02:06:11.796Z,5.40
2017-12-26T02:08:39.367Z,5.20
2017-12-26T02:11:10.509Z,5.60
2017-12-26T02:13:38.262Z,5.12
2017-12-26T02:16:05.729Z,5.10
2017-12-26T02:18:33.204Z,5.30
2017-12-26T02:21:00.746Z,6.85
2017-12-26T02:23:28.260Z,4.87
2017-12-26T02:25:55.766Z,5.03
2017-12-26T02:28:23.320Z,4.15
2017-12-26T02:30:50.858Z,5.50
2017-12-26T02:33:18.350Z,5.90
2017-12-26T02:35:45.798Z,5.35
2017-12-26T02:38:13.246Z,4.45
2017-12-26T02:40:41.469Z,5.30
2017-12-26T02:43:08.923Z,7.70
2017-12-26T02:45:36.455Z,6.05
2017-12-26T02:48:03.913Z,5.50
2017-12-26T02:50:31.646Z,5.05
2017-12-26T02:52:59.379Z,4.97
2017-12-26T02:55:26.878Z,5.75
2017-12-26T02:57:57.423Z,5.43
2017-12-26T03:00:26.406Z,6.35
2017-12-26T03:02:53.965Z,5.95
2017-12-26T03:05:21.461Z,5.53
2017-12-26T03:07:48.986Z,6.07
2017-12-26T03:10:17.048Z,5.55
2017-12-26T03:12:44.706Z,6.20
2017-12-26T03:15:12.866Z,6.20
2017-12-26T03:17:40.430Z,6.05
2017-12-26T03:20:08.400Z,7.05
2017-12-26T03:22:36.095Z,6.18
2017-12-26T03:25:03.728Z,6.90
2017-12-26T03:27:31.288Z,7.93
2017-12-26T03:29:58.796Z,6.03
2017-12-26T03:32:26.266Z,5.70
2017-12-26T03:34:53.740Z,6.60
2017-12-26T03:37:21.389Z,6.05
2017-12-26T03:39:48.941Z,6.50
2017-12-26T03:42:16.550Z,5.72
2017-12-26T03:44:44.006Z,6.22
2017-12-26T03:47:11.462Z,6.32
2017-12-26T03:49:39.063Z,6.80
2017-12-26T03:52:06.777Z,5.47
2017-12-26T03:54:34.287Z,5.47
2017-12-26T03:57:01.762Z,6.45
2017-12-26T03:59:29.247Z,5.55
2017-12-26T04:01:56.720Z,5.80
2017-12-26T04:04:24.174Z,6.57
2017-12-26T04:06:52.721Z,5.78
2017-12-26T04:09:20.223Z,5.87
2017-12-26T04:11:47.698Z,6.82
2017-12-26T04:14:15.276Z,6.87
2017-12-26T04:16:42.800Z,8.05
2017-12-26T04:19:10.254Z,6.50
2017-12-26T04:21:37.733Z,6.35
2017-12-26T04:24:05.187Z,5.72
2017-12-26T04:26:32.677Z,7.40
2017-12-26T04:29:00.188Z,5.72
2017-12-26T04:31:27.645Z,5.97
2017-12-26T04:33:55.160Z,6.10
2017-12-26T04:36:22.626Z,6.75
2017-12-26T04:38:50.078Z,7.15
2017-12-26T04:41:17.581Z,7.18
2017-12-26T04:43:45.150Z,7.30
2017-12-26T04:46:12.635Z,6.72
2017-12-26T04:48:40.118Z,8.52
2017-12-26T04:51:07.579Z,7.18
2017-12-26T04:53:35.061Z,8.13
2017-12-26T04:56:02.536Z,7.45
2017-12-26T04:58:30.019Z,6.80
2017-12-26T05:00:57.831Z,6.70
2017-12-26T05:03:25.286Z,6.70
2017-12-26T05:05:53.852Z,8.65
2017-12-26T05:08:22.098Z,7.15
2017-12-26T05:10:49.555Z,8.20
2017-12-26T05:13:17.012Z,8.18
2017-12-26T05:15:44.502Z,7.07
2017-12-26T05:18:11.971Z,16.73
2017-12-26T05:20:39.518Z,9.27
2017-12-26T05:23:07.752Z,8.45
2017-12-26T05:25:35.190Z,7.62
2017-12-26T05:28:02.678Z,6.80
2017-12-26T05:30:30.142Z,8.55
2017-12-26T05:32:57.616Z,8.02
2017-12-26T05:35:25.954Z,7.93
2017-12-26T05:37:53.426Z,9.77
2017-12-26T05:40:20.896Z,11.32
2017-12-26T05:42:48.391Z,10.35
2017-12-26T05:45:15.858Z,9.15
2017-12-26T05:47:43.310Z,10.38
2017-12-26T05:50:10.852Z,10.80
2017-12-26T05:52:38.347Z,12.60
2017-12-26T05:55:05.847Z,13.62
2017-12-26T05:57:33.419Z,9.40
2017-12-26T06:00:01.691Z,11.10
2017-12-26T06:02:29.915Z,11.65
2017-12-26T06:04:57.414Z,9.77
2017-12-26T06:07:24.878Z,11.23
2017-12-26T06:09:53.128Z,11.93
2017-12-26T06:12:20.628Z,12.18
2017-12-26T06:14:48.859Z,11.32
2017-12-26T06:17:16.378Z,13.18
2017-12-26T06:19:44.034Z,12.02
2017-12-26T06:22:11.548Z,11.88
2017-12-26T06:24:39.042Z,12.05
2017-12-26T06:27:06.521Z,13.55
2017-12-26T06:29:33.989Z,12.07
2017-12-26T06:32:01.647Z,11.50
2017-12-26T06:34:29.110Z,14.93
2017-12-26T06:36:56.582Z,11.88
2017-12-26T06:39:24.050Z,11.65
2017-12-26T06:41:51.515Z,13.77
2017-12-26T06:44:19.030Z,12.23
2017-12-26T06:46:46.486Z,13.25
2017-12-26T06:49:14.118Z,13.18
2017-12-26T06:51:41.606Z,11.80
2017-12-26T06:54:09.114Z,13.00
2017-12-26T06:56:36.584Z,12.25
2017-12-26T06:59:04.084Z,11.77
2017-12-26T07:01:31.591Z,11.38
2017-12-26T07:03:59.064Z,12.40
2017-12-26T07:06:26.539Z,13.10
2017-12-26T07:08:54.006Z,12.75
2017-12-26T07:11:21.465Z,11.88
2017-12-26T07:13:48.984Z,11.43
2017-12-26T07:16:16.443Z,12.00
2017-12-26T07:18:44.681Z,12.48
2017-12-26T07:21:17.854Z,10.90
2017-12-26T07:23:45.359Z,10.63
2017-12-26T07:26:12.840Z,10.60
2017-12-26T07:28:41.262Z,18.40
2017-12-26T07:31:08.760Z,12.43
2017-12-26T07:33:36.223Z,12.37
2017-12-26T07:36:03.769Z,13.60
2017-12-26T07:38:32.008Z,9.35
2017-12-26T07:40:59.470Z,12.95
2017-12-26T07:43:26.939Z,9.65
2017-12-26T07:45:54.426Z,10.02
2017-12-26T07:48:21.887Z,9.65
2017-12-26T07:50:49.415Z,13.90
2017-12-26T07:53:16.882Z,11.63
2017-12-26T07:55:44.354Z,19.75
2017-12-26T07:58:11.822Z,9.40
2017-12-26T08:00:39.305Z,12.80
2017-12-26T08:03:06.810Z,9.55
2017-12-26T08:05:35.124Z,9.00
2017-12-26T08:08:02.598Z,11.65
2017-12-26T08:10:30.078Z,10.35
2017-12-26T08:12:57.546Z,11.57
2017-12-26T08:15:25.037Z,10.52
2017-12-26T08:17:52.607Z,10.63
2017-12-26T08:20:20.126Z,8.63
2017-12-26T08:22:47.618Z,11.90
2017-12-26T08:25:15.158Z,10.05
2017-12-26T08:27:42.609Z,9.88
2017-12-26T08:30:10.079Z,9.75
2017-12-26T08:32:37.551Z,9.13
2017-12-26T08:35:04.995Z,10.13
2017-12-26T08:37:32.468Z,10.18
2017-12-26T08:39:59.953Z,9.23
2017-12-26T08:42:27.436Z,9.75
2017-12-26T08:44:54.893Z,9.95
2017-12-26T08:47:22.354Z,9.90
2017-12-26T08:49:49.815Z,11.73
2017-12-26T08:52:17.274Z,9.15
2017-12-26T08:54:44.738Z,9.95
2017-12-26T08:57:12.971Z,9.73
2017-12-26T08:59:40.444Z,9.55
2017-12-26T09:02:07.901Z,8.85
2017-12-26T09:04:35.404Z,9.57
2017-12-26T09:07:02.865Z,9.05
2017-12-26T09:09:30.339Z,9.65
2017-12-26T09:11:57.803Z,8.45
2017-12-26T09:14:25.282Z,11.15
2017-12-26T09:16:52.762Z,8.40
2017-12-26T09:19:20.294Z,10.95
2017-12-26T09:21:47.767Z,8.63
2017-12-26T09:24:15.225Z,10.93
2017-12-26T09:26:42.802Z,8.45
2017-12-26T09:29:10.286Z,8.43
2017-12-26T09:31:42.484Z,8.48
2017-12-26T09:34:12.109Z,8.15
2017-12-26T09:36:40.912Z,8.68
2017-12-26T09:39:09.064Z,9.15
2017-12-26T09:41:39.503Z,8.07
2017-12-26T09:44:11.478Z,10.70
2017-12-26T09:46:42.800Z,9.18
2017-12-26T09:49:14.351Z,12.15
2017-12-26T09:51:43.019Z,8.55
2017-12-26T09:54:12.301Z,7.62
2017-12-26T09:56:44.231Z,6.80
2017-12-26T09:59:15.534Z,8.10
2017-12-26T10:01:46.930Z,6.95
2017-12-26T10:04:19.863Z,6.53
2017-12-26T10:06:49.758Z,6.32
2017-12-26T10:09:18.163Z,6.28
2017-12-26T10:11:45.724Z,5.50
2017-12-26T10:14:13.188Z,5.45
2017-12-26T10:16:40.648Z,5.72
2017-12-26T10:19:08.351Z,5.30
2017-12-26T10:21:36.567Z,5.75
2017-12-26T10:24:04.055Z,5.50
2017-12-26T10:26:31.504Z,5.10
2017-12-26T10:28:58.974Z,4.47
2017-12-26T10:31:27.043Z,4.70
2017-12-26T10:33:54.516Z,4.30
2017-12-26T10:36:22.004Z,5.50
2017-12-26T10:38:49.536Z,5.07
2017-12-26T10:41:17.004Z,5.05
2017-12-26T10:43:44.548Z,5.35
2017-12-26T10:46:12.089Z,4.10
2017-12-26T10:48:39.581Z,4.50
2017-12-26T10:51:07.107Z,5.80
2017-12-26T10:53:34.596Z,4.40
2017-12-26T10:56:03.153Z,4.22
2017-12-26T10:58:30.643Z,4.57
2017-12-26T11:00:58.191Z,5.03
2017-12-26T11:03:26.632Z,4.85
2017-12-26T11:05:54.127Z,4.07
2017-12-26T11:08:22.067Z,4.43
2017-12-26T11:10:49.547Z,3.67
2017-12-26T11:13:17.795Z,3.70
2017-12-26T11:15:45.297Z,4.45
2017-12-26T11:18:13.323Z,4.12
2017-12-26T11:20:40.916Z,3.67
2017-12-26T11:23:08.411Z,3.72
2017-12-26T11:25:35.903Z,3.90
2017-12-26T11:28:03.370Z,4.20
2017-12-26T11:30:31.064Z,3.08
2017-12-26T11:32:58.621Z,3.17
2017-12-26T11:35:26.059Z,4.10
2017-12-26T11:37:53.585Z,3.80
2017-12-26T11:40:21.272Z,3.20
2017-12-26T11:42:48.809Z,3.58
2017-12-26T11:45:16.290Z,3.12
2017-12-26T11:47:43.834Z,3.00
2017-12-26T11:50:11.531Z,3.47
2017-12-26T11:52:39.803Z,3.08
2017-12-26T11:55:08.052Z,3.20
2017-12-26T11:57:35.546Z,3.80
2017-12-26T12:00:03.069Z,3.80
2017-12-26T12:02:30.574Z,3.87
2017-12-26T12:04:58.039Z,3.50
2017-12-26T12:07:25.641Z,4.37
2017-12-26T12:09:53.136Z,3.75
2017-12-26T12:12:20.856Z,5.10
2017-12-26T12:14:48.385Z,4.32
2017-12-26T12:17:15.910Z,4.03
2017-12-26T12:19:43.479Z,4.28
2017-12-26T12:22:11.000Z,3.67
2017-12-26T12:24:38.535Z,3.58
2017-12-26T12:27:06.033Z,2.80
2017-12-26T12:29:34.283Z,3.50
2017-12-26T12:32:01.877Z,3.10
2017-12-26T12:34:29.614Z,3.58
2017-12-26T12:36:57.956Z,3.62
2017-12-26T12:39:25.408Z,3.72
2017-12-26T12:41:52.931Z,4.93
2017-12-26T12:44:21.167Z,5.35
2017-12-26T12:46:48.640Z,4.25
2017-12-26T12:49:16.162Z,4.30
2017-12-26T12:51:43.673Z,5.40
2017-12-26T12:54:11.175Z,4.43
2017-12-26T12:56:38.819Z,4.45
2017-12-26T12:59:06.288Z,5.40
2017-12-26T13:01:33.809Z,5.47
2017-12-26T13:04:01.336Z,5.00
2017-12-26T13:06:28.819Z,5.20
2017-12-26T13:08:56.350Z,4.53
2017-12-26T13:11:23.836Z,4.65
2017-12-26T13:13:52.108Z,4.45
2017-12-26T13:16:19.718Z,4.40
2017-12-26T13:18:47.197Z,4.43
2017-12-26T13:21:14.684Z,4.25
2017-12-26T13:23:42.967Z,3.97
2017-12-26T13:26:11.207Z,5.07
2017-12-26T13:28:38.664Z,3.62
2017-12-26T13:31:06.135Z,3.70
2017-12-26T13:33:33.591Z,4.22
2017-12-26T13:36:01.080Z,4.03
2017-12-26T13:38:28.540Z,5.43
2017-12-26T13:40:56.421Z,3.72
2017-12-26T13:43:24.031Z,3.83
2017-12-26T13:45:51.509Z,4.03
2017-12-26T13:48:19.744Z,3.70
2017-12-26T13:50:47.207Z,4.07
2017-12-26T13:53:14.709Z,4.10
2017-12-26T13:55:42.166Z,4.15
2017-12-26T13:58:09.705Z,4.03
2017-12-26T14:00:37.160Z,4.53
2017-12-26T14:03:04.618Z,3.87
2017-12-26T14:05:32.198Z,4.10
2017-12-26T14:08:00.458Z,4.45
2017-12-26T14:10:28.844Z,4.37
2017-12-26T14:12:57.107Z,5.18
2017-12-26T14:15:25.370Z,3.90
2017-12-26T14:43:04.587Z,4.43
2017-12-26T14:48:26.299Z,4.05
2017-12-26T14:54:08.890Z,4.95
2017-12-26T14:59:35.048Z,3.90
2017-12-26T15:02:02.736Z,4.47
2017-12-26T15:04:45.804Z,5.05
2017-12-26T15:10:27.547Z,5.28
2017-12-26T15:13:07.952Z,5.93
2017-12-26T15:15:48.529Z,5.45
2017-12-26T15:18:17.339Z,6.72
2017-12-26T15:26:39.029Z,4.80
2017-12-26T16:02:55.811Z,6.75
2017-12-26T16:11:53.604Z,6.00
2017-12-26T16:14:43.443Z,9.80
2017-12-26T16:26:47.536Z,6.32
2017-12-26T17:18:27.896Z,10.10
2017-12-26T17:20:59.591Z,8.15
2017-12-26T17:23:29.399Z,7.15
2017-12-26T17:57:53.221Z,7.00
2017-12-26T18:00:20.832Z,7.00
2017-12-26T18:02:48.342Z,7.05
2017-12-26T18:05:15.863Z,7.10
2017-12-26T18:07:43.842Z,7.80
2017-12-26T18:10:11.370Z,7.28
2017-12-26T18:12:38.971Z,7.05
2017-12-26T18:15:06.892Z,8.65
2017-12-26T18:17:35.480Z,19.27
2017-12-26T18:20:03.008Z,8.15
2017-12-26T18:22:30.511Z,10.23
2017-12-26T18:24:58.017Z,7.03
2017-12-26T18:27:32.987Z,6.15
2017-12-26T18:30:04.516Z,6.75
2017-12-26T18:35:52.643Z,8.00
2017-12-26T18:38:23.336Z,8.48
2017-12-26T19:37:40.850Z,9.55
2017-12-26T19:40:09.158Z,10.90
2017-12-26T19:42:36.676Z,6.07
2017-12-26T19:45:04.338Z,5.75
2017-12-26T19:47:31.989Z,6.15
2017-12-26T19:49:59.549Z,7.93
2017-12-26T19:52:27.132Z,6.82
2017-12-26T19:54:54.893Z,6.45
2017-12-26T19:57:22.829Z,5.65
2017-12-26T19:59:50.616Z,6.72
2017-12-26T20:02:18.475Z,5.37
2017-12-26T20:04:45.987Z,5.97
2017-12-26T20:07:13.551Z,4.75
2017-12-26T20:09:41.431Z,6.97
2017-12-26T20:12:09.101Z,5.57
2017-12-26T20:14:36.607Z,8.15
2017-12-26T20:17:04.246Z,8.60
2017-12-26T20:19:32.657Z,8.15
2017-12-26T20:22:00.394Z,5.82
2017-12-26T20:24:28.082Z,5.37
2017-12-26T20:26:56.741Z,7.40
2017-12-26T20:29:24.232Z,4.85
2017-12-26T20:31:51.682Z,4.70
2017-12-26T20:34:19.185Z,6.85
2017-12-26T20:36:49.667Z,5.70
2017-12-26T20:39:17.174Z,5.78
2017-12-26T20:41:45.546Z,10.50
2017-12-26T20:44:13.021Z,6.10
2017-12-26T20:46:40.937Z,5.50
2017-12-26T20:49:08.384Z,9.25
2017-12-26T20:51:35.940Z,10.10
2017-12-26T20:54:03.455Z,7.03
2017-12-26T20:56:31.005Z,7.53
2017-12-26T20:58:58.619Z,7.78
2017-12-26T21:01:26.965Z,7.45
2017-12-26T21:03:54.456Z,8.30
2017-12-26T21:06:22.049Z,7.12
2017-12-26T21:08:49.548Z,7.25
2017-12-26T21:11:17.147Z,7.37
2017-12-26T21:13:44.714Z,11.93
2017-12-26T21:16:12.256Z,9.52
2017-12-26T21:18:40.704Z,10.30
2017-12-26T21:21:08.262Z,11.05
2017-12-26T21:23:35.855Z,11.32
2017-12-26T21:26:03.317Z,10.07
2017-12-26T21:28:31.042Z,8.02
2017-12-26T21:30:58.666Z,9.23
2017-12-26T21:33:26.167Z,6.90
2017-12-26T21:35:53.650Z,8.75
2017-12-26T21:38:21.238Z,13.82
2017-12-26T21:40:49.024Z,13.68
2017-12-26T21:43:16.595Z,13.62
2017-12-26T21:45:44.207Z,11.40
2017-12-26T21:48:12.154Z,9.60
2017-12-26T21:50:39.695Z,11.05
2017-12-26T21:53:07.343Z,8.75
2017-12-26T21:55:35.112Z,10.85
2017-12-26T21:58:02.609Z,8.00
2017-12-26T22:00:30.160Z,8.40
2017-12-26T22:02:57.661Z,10.10
2017-12-26T22:05:25.159Z,9.68
2017-12-26T22:07:52.688Z,11.18
2017-12-26T22:10:20.358Z,8.40
2017-12-26T22:12:47.874Z,11.43
2017-12-26T22:15:15.480Z,8.15
2017-12-26T22:17:46.618Z,10.85
2017-12-26T22:20:14.146Z,11.02
2017-12-26T22:22:42.710Z,8.55
2017-12-26T22:25:14.003Z,7.30
2017-12-26T22:27:42.437Z,8.77
2017-12-26T22:30:09.970Z,7.70
2017-12-26T22:32:37.447Z,7.47
2017-12-26T22:35:05.083Z,10.38
2017-12-26T22:37:32.774Z,8.52
2017-12-26T22:40:00.554Z,7.75
2017-12-26T22:42:28.223Z,7.50
2017-12-26T22:44:56.495Z,11.52
2017-12-26T22:47:24.012Z,10.93
2017-12-26T22:49:53.232Z,8.07
2017-12-26T22:52:21.655Z,12.85
2017-12-26T22:54:49.137Z,5.80
2017-12-26T22:57:16.934Z,8.45
2017-12-26T22:59:50.774Z,9.85
2017-12-26T23:02:18.336Z,6.28
2017-12-26T23:04:45.828Z,8.60
2017-12-26T23:07:13.398Z,6.82
2017-12-26T23:09:41.003Z,7.30
2017-12-26T23:12:08.534Z,8.65
2017-12-26T23:14:41.566Z,6.28
2017-12-26T23:17:14.828Z,7.10
2017-12-26T23:19:48.003Z,7.57
2017-12-26T23:22:20.732Z,8.77
2017-12-26T23:24:54.849Z,7.62
2017-12-26T23:27:41.169Z,7.55
2017-12-26T23:30:14.247Z,7.90
2017-12-26T23:32:47.539Z,7.00
2017-12-26T23:35:20.573Z,9.93
2017-12-26T23:37:53.959Z,9.65
2017-12-26T23:40:27.316Z,8.60
2017-12-26T23:43:00.807Z,8.35
2017-12-26T23:45:38.441Z,15.80
2017-12-26T23:48:15.065Z,9.75
2017-12-26T23:50:49.690Z,10.05
2017-12-26T23:53:22.811Z,8.75
2017-12-26T23:55:55.967Z,8.95
2017-12-26T23:58:31.179Z,10.80
